Terminal Aerodrome Forecast
Issued by NWS Sterling, VA

Current Version | Previous Version | Text Only | Print | Product List | Glossary Off
Versions: 1 2 3 4 5 6 7 8 9 10 11 12 13 14 15 16 17 18 19 20 21 22 23

000
FTUS41 KLWX 251435 AAA
TAFDCA
TAF AMD
KDCA 251435Z 2515/2612 18008KT P6SM BKN230
     FM252200 VRB04KT P6SM BKN200
     FM260200 VRB03KT P6SM BKN035 OVC080
     FM260800 04009KT 3SM -SN OVC020
     FM261100 01010KT 1SM -SN OVC010=

USA.gov is the U.S. government's official web portal to all federal, state and local government web resources and services.